sensor_id;sensor_type;location;lat;lon;timestamp;pressure;altitude;pressure_sealevel;temperature;humidity
48424;BME280;34232;42.502;26.014;2023-01-27T00:01:45;99383.28;;;7.11;100.00
48424;BME280;34232;42.502;26.014;2023-01-27T00:04:13;99384.84;;;7.13;100.00
48424;BME280;34232;42.502;26.014;2023-01-27T00:06:39;99375.88;;;7.16;100.00
48424;BME280;34232;42.502;26.014;2023-01-27T00:09:04;99369.25;;;7.12;100.00
48424;BME280;34232;42.502;26.014;2023-01-27T00:11:30;99364.75;;;7.14;100.00
48424;BME280;34232;42.502;26.014;2023-01-27T00:14:14;99359.63;;;7.12;100.00
48424;BME280;34232;42.502;26.014;2023-01-27T00:16:40;99354.28;;;7.14;100.00
48424;BME280;34232;42.502;26.014;2023-01-27T00:19:05;99339.16;;;7.06;100.00
48424;BME280;34232;42.502;26.014;2023-01-27T00:21:30;99337.59;;;7.15;100.00
48424;BME280;34232;42.502;26.014;2023-01-27T00:24:14;99328.22;;;7.01;100.00
48424;BME280;34232;42.502;26.014;2023-01-27T00:26:58;99347.50;;;7.11;100.00
48424;BME280;34232;42.502;26.014;2023-01-27T00:29:24;99343.09;;;7.12;100.00
48424;BME280;34232;42.502;26.014;2023-01-27T00:31:49;99356.53;;;7.07;100.00
48424;BME280;34232;42.502;26.014;2023-01-27T00:34:34;99353.44;;;7.13;100.00
48424;BME280;34232;42.502;26.014;2023-01-27T00:36:59;99372.31;;;7.17;100.00
48424;BME280;34232;42.502;26.014;2023-01-27T00:39:25;99361.38;;;7.23;100.00
48424;BME280;34232;42.502;26.014;2023-01-27T00:41:50;99359.47;;;7.25;100.00
48424;BME280;34232;42.502;26.014;2023-01-27T00:44:15;99357.34;;;7.30;100.00
48424;BME280;34232;42.502;26.014;2023-01-27T00:46:41;99363.97;;;7.34;100.00
48424;BME280;34232;42.502;26.014;2023-01-27T00:49:07;99363.50;;;7.29;100.00
48424;BME280;34232;42.502;26.014;2023-01-27T00:51:33;99360.97;;;7.38;100.00
48424;BME280;34232;42.502;26.014;2023-01-27T00:54:00;99353.72;;;7.31;100.00
48424;BME280;34232;42.502;26.014;2023-01-27T00:56:27;99363.47;;;7.40;100.00
48424;BME280;34232;42.502;26.014;2023-01-27T00:58:53;99377.28;;;7.42;100.00
48424;BME280;34232;42.502;26.014;2023-01-27T01:01:18;99359.06;;;7.41;100.00
48424;BME280;34232;42.502;26.014;2023-01-27T01:03:44;99362.72;;;7.49;100.00
48424;BME280;34232;42.502;26.014;2023-01-27T01:06:11;99355.16;;;7.46;100.00
48424;BME280;34232;42.502;26.014;2023-01-27T01:08:38;99363.69;;;7.48;100.00
48424;BME280;34232;42.502;26.014;2023-01-27T01:11:05;99342.16;;;7.45;100.00
48424;BME280;34232;42.502;26.014;2023-01-27T01:13:32;99334.19;;;7.46;100.00
48424;BME280;34232;42.502;26.014;2023-01-27T01:18:32;99302.31;;;7.41;100.00
48424;BME280;34232;42.502;26.014;2023-01-27T01:20:57;99305.63;;;7.43;100.00
48424;BME280;34232;42.502;26.014;2023-01-27T01:23:22;99310.16;;;7.41;100.00
48424;BME280;34232;42.502;26.014;2023-01-27T01:25:52;99304.22;;;7.39;100.00
48424;BME280;34232;42.502;26.014;2023-01-27T01:28:18;99320.41;;;7.33;100.00
48424;BME280;34232;42.502;26.014;2023-01-27T01:30:44;99327.31;;;7.34;100.00
48424;BME280;34232;42.502;26.014;2023-01-27T01:33:09;99318.50;;;7.35;100.00
48424;BME280;34232;42.502;26.014;2023-01-27T01:35:36;99327.06;;;7.37;100.00
48424;BME280;34232;42.502;26.014;2023-01-27T01:38:02;99324.31;;;7.38;100.00
48424;BME280;34232;42.502;26.014;2023-01-27T01:40:28;99349.19;;;7.44;100.00
48424;BME280;34232;42.502;26.014;2023-01-27T01:47:58;99334.31;;;7.45;100.00
48424;BME280;34232;42.502;26.014;2023-01-27T01:50:25;99316.69;;;7.47;100.00
48424;BME280;34232;42.502;26.014;2023-01-27T01:52:51;99311.47;;;7.47;100.00
48424;BME280;34232;42.502;26.014;2023-01-27T01:55:17;99307.03;;;7.47;100.00
48424;BME280;34232;42.502;26.014;2023-01-27T01:57:42;99303.31;;;7.50;100.00
48424;BME280;34232;42.502;26.014;2023-01-27T02:00:09;99299.88;;;7.49;100.00
48424;BME280;34232;42.502;26.014;2023-01-27T02:02:36;99261.44;;;7.50;100.00
48424;BME280;34232;42.502;26.014;2023-01-27T02:05:12;99262.97;;;7.52;100.00
48424;BME280;34232;42.502;26.014;2023-01-27T02:07:45;99259.41;;;7.53;100.00
48424;BME280;34232;42.502;26.014;2023-01-27T02:10:14;99267.38;;;7.52;100.00
48424;BME280;34232;42.502;26.014;2023-01-27T02:12:40;99257.25;;;7.58;100.00
48424;BME280;34232;42.502;26.014;2023-01-27T02:15:06;99238.06;;;7.58;100.00
48424;BME280;34232;42.502;26.014;2023-01-27T02:17:32;99224.16;;;7.57;100.00
48424;BME280;34232;42.502;26.014;2023-01-27T02:22:49;99273.38;;;7.63;100.00
48424;BME280;34232;42.502;26.014;2023-01-27T02:28:06;99255.50;;;7.48;100.00
48424;BME280;34232;42.502;26.014;2023-01-27T02:30:32;99252.50;;;7.52;100.00
48424;BME280;34232;42.502;26.014;2023-01-27T02:32:58;99245.09;;;7.57;100.00
48424;BME280;34232;42.502;26.014;2023-01-27T02:35:36;99239.34;;;7.63;100.00
48424;BME280;34232;42.502;26.014;2023-01-27T02:38:06;99246.88;;;7.57;100.00
48424;BME280;34232;42.502;26.014;2023-01-27T02:40:35;99256.06;;;7.51;100.00
48424;BME280;34232;42.502;26.014;2023-01-27T02:43:03;99232.75;;;7.48;100.00
48424;BME280;34232;42.502;26.014;2023-01-27T02:45:29;99204.66;;;7.50;100.00
48424;BME280;34232;42.502;26.014;2023-01-27T02:47:54;99200.66;;;7.46;100.00
48424;BME280;34232;42.502;26.014;2023-01-27T02:50:19;99187.81;;;7.43;100.00
48424;BME280;34232;42.502;26.014;2023-01-27T02:52:45;99199.25;;;7.42;100.00
48424;BME280;34232;42.502;26.014;2023-01-27T02:55:10;99210.78;;;7.40;100.00
48424;BME280;34232;42.502;26.014;2023-01-27T02:57:35;99228.28;;;7.39;100.00
48424;BME280;34232;42.502;26.014;2023-01-27T03:00:01;99232.31;;;7.43;100.00
48424;BME280;34232;42.502;26.014;2023-01-27T03:02:27;99232.31;;;7.43;100.00
48424;BME280;34232;42.502;26.014;2023-01-27T03:04:58;99227.34;;;7.40;100.00
48424;BME280;34232;42.502;26.014;2023-01-27T03:07:25;99225.72;;;7.49;100.00
48424;BME280;34232;42.502;26.014;2023-01-27T03:09:50;99222.59;;;7.55;100.00
48424;BME280;34232;42.502;26.014;2023-01-27T03:12:16;99222.59;;;7.55;100.00
48424;BME280;34232;42.502;26.014;2023-01-27T03:14:44;99223.19;;;7.58;100.00
48424;BME280;34232;42.502;26.014;2023-01-27T03:17:28;99217.69;;;7.61;100.00
48424;BME280;34232;42.502;26.014;2023-01-27T03:20:12;99216.75;;;7.62;100.00
48424;BME280;34232;42.502;26.014;2023-01-27T03:22:38;99200.88;;;7.64;100.00
48424;BME280;34232;42.502;26.014;2023-01-27T03:25:03;99215.97;;;7.71;100.00
48424;BME280;34232;42.502;26.014;2023-01-27T03:27:29;99224.53;;;7.73;100.00
48424;BME280;34232;42.502;26.014;2023-01-27T03:29:55;99235.00;;;7.73;100.00
48424;BME280;34232;42.502;26.014;2023-01-27T03:32:25;99245.72;;;7.70;100.00
48424;BME280;34232;42.502;26.014;2023-01-27T03:34:52;99249.06;;;7.72;100.00
48424;BME280;34232;42.502;26.014;2023-01-27T03:37:18;99237.03;;;7.70;100.00
48424;BME280;34232;42.502;26.014;2023-01-27T03:40:02;99246.91;;;7.78;100.00
48424;BME280;34232;42.502;26.014;2023-01-27T03:42:46;99239.72;;;7.80;100.00
48424;BME280;34232;42.502;26.014;2023-01-27T03:45:30;99238.06;;;7.79;100.00
48424;BME280;34232;42.502;26.014;2023-01-27T03:48:14;99233.97;;;7.86;100.00
48424;BME280;34232;42.502;26.014;2023-01-27T03:50:45;99226.56;;;7.91;100.00
48424;BME280;34232;42.502;26.014;2023-01-27T03:53:20;99215.13;;;7.92;100.00
48424;BME280;34232;42.502;26.014;2023-01-27T03:55:46;99208.38;;;7.99;100.00
48424;BME280;34232;42.502;26.014;2023-01-27T03:58:23;99215.59;;;8.06;100.00
48424;BME280;34232;42.502;26.014;2023-01-27T04:00:51;99210.09;;;8.10;100.00
48424;BME280;34232;42.502;26.014;2023-01-27T04:03:18;99216.34;;;8.18;100.00
48424;BME280;34232;42.502;26.014;2023-01-27T04:06:07;99215.13;;;8.22;100.00
48424;BME280;34232;42.502;26.014;2023-01-27T04:08:51;99225.59;;;8.22;100.00
48424;BME280;34232;42.502;26.014;2023-01-27T04:11:17;99213.19;;;8.24;100.00
48424;BME280;34232;42.502;26.014;2023-01-27T04:14:02;99201.75;;;8.25;100.00
48424;BME280;34232;42.502;26.014;2023-01-27T04:16:29;99201.31;;;8.30;100.00
48424;BME280;34232;42.502;26.014;2023-01-27T04:18:55;99195.41;;;8.28;100.00
48424;BME280;34232;42.502;26.014;2023-01-27T04:21:21;99187.50;;;8.18;100.00
48424;BME280;34232;42.502;26.014;2023-01-27T04:23:46;99188.91;;;8.22;100.00
48424;BME280;34232;42.502;26.014;2023-01-27T04:26:12;99195.59;;;8.36;100.00
48424;BME280;34232;42.502;26.014;2023-01-27T04:28:37;99187.25;;;8.31;100.00
48424;BME280;34232;42.502;26.014;2023-01-27T04:31:03;99190.31;;;8.26;100.00
48424;BME280;34232;42.502;26.014;2023-01-27T04:33:28;99198.84;;;8.28;100.00
48424;BME280;34232;42.502;26.014;2023-01-27T04:35:54;99200.22;;;8.23;100.00
48424;BME280;34232;42.502;26.014;2023-01-27T04:38:20;99203.22;;;8.18;100.00
48424;BME280;34232;42.502;26.014;2023-01-27T04:40:46;99202.97;;;8.21;100.00
48424;BME280;34232;42.502;26.014;2023-01-27T04:43:11;99193.19;;;8.23;100.00
48424;BME280;34232;42.502;26.014;2023-01-27T04:45:37;99169.72;;;8.22;100.00
48424;BME280;34232;42.502;26.014;2023-01-27T04:48:02;99165.22;;;8.33;100.00
48424;BME280;34232;42.502;26.014;2023-01-27T04:50:28;99157.47;;;8.32;100.00
48424;BME280;34232;42.502;26.014;2023-01-27T04:52:53;99158.88;;;8.36;100.00
48424;BME280;34232;42.502;26.014;2023-01-27T04:55:19;99162.78;;;8.41;100.00
48424;BME280;34232;42.502;26.014;2023-01-27T04:57:44;99172.28;;;8.43;100.00
48424;BME280;34232;42.502;26.014;2023-01-27T05:00:10;99175.19;;;8.39;100.00
48424;BME280;34232;42.502;26.014;2023-01-27T05:02:36;99173.25;;;8.41;100.00
48424;BME280;34232;42.502;26.014;2023-01-27T05:05:02;99169.94;;;8.39;100.00
48424;BME280;34232;42.502;26.014;2023-01-27T05:07:31;99166.34;;;8.40;100.00
48424;BME280;34232;42.502;26.014;2023-01-27T05:09:56;99168.28;;;8.38;100.00
48424;BME280;34232;42.502;26.014;2023-01-27T05:12:22;99176.84;;;8.40;100.00
48424;BME280;34232;42.502;26.014;2023-01-27T05:14:47;99172.69;;;8.38;100.00
48424;BME280;34232;42.502;26.014;2023-01-27T05:17:12;99166.88;;;8.34;100.00
48424;BME280;34232;42.502;26.014;2023-01-27T05:19:38;99171.53;;;8.31;100.00
48424;BME280;34232;42.502;26.014;2023-01-27T05:22:03;99171.44;;;8.32;100.00
48424;BME280;34232;42.502;26.014;2023-01-27T05:24:29;99186.44;;;8.30;100.00
48424;BME280;34232;42.502;26.014;2023-01-27T05:26:54;99167.72;;;8.35;100.00
48424;BME280;34232;42.502;26.014;2023-01-27T05:29:19;99170.34;;;8.45;100.00
48424;BME280;34232;42.502;26.014;2023-01-27T05:31:45;99168.28;;;8.48;100.00
48424;BME280;34232;42.502;26.014;2023-01-27T05:34:10;99172.69;;;8.48;100.00
48424;BME280;34232;42.502;26.014;2023-01-27T05:36:36;99183.91;;;8.50;100.00
48424;BME280;34232;42.502;26.014;2023-01-27T05:39:01;99188.19;;;8.51;100.00
48424;BME280;34232;42.502;26.014;2023-01-27T05:41:28;99188.19;;;8.51;100.00
48424;BME280;34232;42.502;26.014;2023-01-27T05:43:57;99182.94;;;8.51;100.00
48424;BME280;34232;42.502;26.014;2023-01-27T05:46:25;99181.56;;;8.56;100.00
48424;BME280;34232;42.502;26.014;2023-01-27T05:48:52;99175.22;;;8.59;100.00
48424;BME280;34232;42.502;26.014;2023-01-27T05:51:19;99170.38;;;8.64;100.00
48424;BME280;34232;42.502;26.014;2023-01-27T05:53:46;99164.19;;;8.65;100.00
48424;BME280;34232;42.502;26.014;2023-01-27T05:56:13;99152.03;;;8.64;100.00
48424;BME280;34232;42.502;26.014;2023-01-27T05:58:39;99152.59;;;8.67;100.00
48424;BME280;34232;42.502;26.014;2023-01-27T06:01:16;99161.72;;;8.73;100.00
48424;BME280;34232;42.502;26.014;2023-01-27T06:03:43;99155.91;;;8.69;100.00
48424;BME280;34232;42.502;26.014;2023-01-27T06:06:10;99155.34;;;8.66;100.00
48424;BME280;34232;42.502;26.014;2023-01-27T06:08:36;99149.13;;;8.67;100.00
48424;BME280;34232;42.502;26.014;2023-01-27T06:11:02;99147.88;;;8.52;100.00
48424;BME280;34232;42.502;26.014;2023-01-27T06:13:27;99144.03;;;8.56;100.00
48424;BME280;34232;42.502;26.014;2023-01-27T06:15:53;99158.94;;;8.55;100.00
48424;BME280;34232;42.502;26.014;2023-01-27T06:18:22;99155.59;;;8.53;100.00
48424;BME280;34232;42.502;26.014;2023-01-27T06:20:48;99172.19;;;8.54;100.00
48424;BME280;34232;42.502;26.014;2023-01-27T06:23:15;99172.69;;;8.48;100.00
48424;BME280;34232;42.502;26.014;2023-01-27T06:25:43;99181.53;;;8.47;100.00
48424;BME280;34232;42.502;26.014;2023-01-27T06:28:09;99196.16;;;8.39;100.00
48424;BME280;34232;42.502;26.014;2023-01-27T06:30:36;99190.66;;;8.43;100.00
48424;BME280;34232;42.502;26.014;2023-01-27T06:33:02;99180.16;;;8.43;100.00
48424;BME280;34232;42.502;26.014;2023-01-27T06:35:29;99188.19;;;8.51;100.00
48424;BME280;34232;42.502;26.014;2023-01-27T06:37:57;99177.41;;;8.54;100.00
48424;BME280;34232;42.502;26.014;2023-01-27T06:40:23;99180.75;;;8.56;100.00
48424;BME280;34232;42.502;26.014;2023-01-27T06:42:49;99173.84;;;8.55;100.00
48424;BME280;34232;42.502;26.014;2023-01-27T06:45:14;99187.53;;;8.68;100.00
48424;BME280;34232;42.502;26.014;2023-01-27T06:47:40;99201.78;;;8.75;100.00
48424;BME280;34232;42.502;26.014;2023-01-27T06:50:07;99200.38;;;8.71;100.00
48424;BME280;34232;42.502;26.014;2023-01-27T06:52:33;99208.69;;;8.76;100.00
48424;BME280;34232;42.502;26.014;2023-01-27T06:54:59;99216.69;;;8.74;100.00
48424;BME280;34232;42.502;26.014;2023-01-27T06:57:24;99204.78;;;8.80;100.00
48424;BME280;34232;42.502;26.014;2023-01-27T06:59:49;99220.00;;;8.76;100.00
48424;BME280;34232;42.502;26.014;2023-01-27T07:02:15;99222.16;;;8.62;100.00
48424;BME280;34232;42.502;26.014;2023-01-27T07:04:40;99222.38;;;8.39;100.00
48424;BME280;34232;42.502;26.014;2023-01-27T07:07:06;99228.69;;;8.06;100.00
48424;BME280;34232;42.502;26.014;2023-01-27T07:09:31;99229.81;;;7.83;100.00
48424;BME280;34232;42.502;26.014;2023-01-27T07:11:56;99222.22;;;7.59;100.00
48424;BME280;34232;42.502;26.014;2023-01-27T07:14:22;99210.34;;;7.14;100.00
48424;BME280;34232;42.502;26.014;2023-01-27T07:16:48;99231.53;;;6.99;100.00
48424;BME280;34232;42.502;26.014;2023-01-27T07:19:16;99225.75;;;6.85;100.00
48424;BME280;34232;42.502;26.014;2023-01-27T07:21:42;99230.25;;;6.94;100.00
48424;BME280;34232;42.502;26.014;2023-01-27T07:24:07;99230.84;;;6.86;100.00
48424;BME280;34232;42.502;26.014;2023-01-27T07:26:33;99220.19;;;6.78;100.00
48424;BME280;34232;42.502;26.014;2023-01-27T07:28:58;99211.13;;;6.82;100.00
48424;BME280;34232;42.502;26.014;2023-01-27T07:31:24;99200.81;;;6.70;100.00
48424;BME280;34232;42.502;26.014;2023-01-27T07:33:51;99200.50;;;6.63;100.00
48424;BME280;34232;42.502;26.014;2023-01-27T07:36:16;99199.06;;;6.59;100.00
48424;BME280;34232;42.502;26.014;2023-01-27T07:38:42;99193.84;;;6.59;100.00
48424;BME280;34232;42.502;26.014;2023-01-27T07:41:07;99188.38;;;6.62;100.00
48424;BME280;34232;42.502;26.014;2023-01-27T07:43:33;99191.22;;;6.59;100.00
48424;BME280;34232;42.502;26.014;2023-01-27T07:45:59;99197.66;;;6.55;100.00
48424;BME280;34232;42.502;26.014;2023-01-27T07:48:24;99183.31;;;6.49;100.00
48424;BME280;34232;42.502;26.014;2023-01-27T07:50:50;99167.69;;;6.59;100.00
48424;BME280;34232;42.502;26.014;2023-01-27T07:53:15;99175.72;;;6.78;100.00
48424;BME280;34232;42.502;26.014;2023-01-27T07:55:41;99164.97;;;6.92;100.00
48424;BME280;34232;42.502;26.014;2023-01-27T07:58:07;99175.13;;;7.07;100.00
48424;BME280;34232;42.502;26.014;2023-01-27T08:00:33;99169.00;;;7.17;100.00
48424;BME280;34232;42.502;26.014;2023-01-27T08:03:00;99172.66;;;7.26;100.00
48424;BME280;34232;42.502;26.014;2023-01-27T08:05:26;99177.44;;;7.21;100.00
48424;BME280;34232;42.502;26.014;2023-01-27T08:07:54;99182.16;;;7.06;100.00
48424;BME280;34232;42.502;26.014;2023-01-27T08:10:20;99180.84;;;7.12;100.00
48424;BME280;34232;42.502;26.014;2023-01-27T08:12:46;99182.69;;;7.21;100.00
48424;BME280;34232;42.502;26.014;2023-01-27T08:15:12;99167.44;;;7.26;100.00
48424;BME280;34232;42.502;26.014;2023-01-27T08:17:38;99153.69;;;7.33;100.00
48424;BME280;34232;42.502;26.014;2023-01-27T08:20:04;99160.00;;;7.52;100.00
48424;BME280;34232;42.502;26.014;2023-01-27T08:22:30;99153.88;;;7.62;100.00
48424;BME280;34232;42.502;26.014;2023-01-27T08:24:55;99140.78;;;7.62;100.00
48424;BME280;34232;42.502;26.014;2023-01-27T08:27:21;99143.06;;;7.77;100.00
48424;BME280;34232;42.502;26.014;2023-01-27T08:29:47;99130.94;;;7.85;100.00
48424;BME280;34232;42.502;26.014;2023-01-27T08:32:12;99130.31;;;7.93;100.00
48424;BME280;34232;42.502;26.014;2023-01-27T08:34:38;99134.16;;;7.98;100.00
48424;BME280;34232;42.502;26.014;2023-01-27T08:37:05;99130.91;;;8.06;100.00
48424;BME280;34232;42.502;26.014;2023-01-27T08:39:31;99120.09;;;7.99;100.00
48424;BME280;34232;42.502;26.014;2023-01-27T08:41:58;99137.25;;;8.13;100.00
48424;BME280;34232;42.502;26.014;2023-01-27T08:44:24;99135.75;;;8.20;100.00
48424;BME280;34232;42.502;26.014;2023-01-27T08:46:52;99134.28;;;8.27;100.00
48424;BME280;34232;42.502;26.014;2023-01-27T08:49:18;99124.06;;;8.24;100.00
48424;BME280;34232;42.502;26.014;2023-01-27T08:51:43;99134.19;;;8.38;100.00
48424;BME280;34232;42.502;26.014;2023-01-27T08:54:10;99122.47;;;8.43;100.00
48424;BME280;34232;42.502;26.014;2023-01-27T08:56:35;99131.00;;;8.45;100.00
48424;BME280;34232;42.502;26.014;2023-01-27T08:59:01;99126.31;;;8.48;100.00
48424;BME280;34232;42.502;26.014;2023-01-27T09:01:26;99130.06;;;8.55;100.00
48424;BME280;34232;42.502;26.014;2023-01-27T09:03:51;99121.38;;;8.55;100.00
48424;BME280;34232;42.502;26.014;2023-01-27T09:06:17;99114.03;;;8.39;100.00
48424;BME280;34232;42.502;26.014;2023-01-27T09:08:44;99119.69;;;8.34;100.00
48424;BME280;34232;42.502;26.014;2023-01-27T09:11:29;99113.00;;;8.30;100.00
48424;BME280;34232;42.502;26.014;2023-01-27T09:13:55;99113.25;;;8.18;100.00
48424;BME280;34232;42.502;26.014;2023-01-27T09:16:20;99109.34;;;7.93;100.00
48424;BME280;34232;42.502;26.014;2023-01-27T09:18:46;99105.22;;;8.00;100.00
48424;BME280;34232;42.502;26.014;2023-01-27T09:21:11;99102.09;;;7.76;100.00
48424;BME280;34232;42.502;26.014;2023-01-27T09:23:36;99097.38;;;7.69;100.00
48424;BME280;34232;42.502;26.014;2023-01-27T09:26:02;99097.63;;;7.66;100.00
48424;BME280;34232;42.502;26.014;2023-01-27T09:28:27;99103.84;;;7.35;100.00
48424;BME280;34232;42.502;26.014;2023-01-27T09:30:56;99108.78;;;7.59;100.00
48424;BME280;34232;42.502;26.014;2023-01-27T09:33:22;99117.53;;;7.48;100.00
48424;BME280;34232;42.502;26.014;2023-01-27T09:36:13;99116.75;;;7.27;100.00
48424;BME280;34232;42.502;26.014;2023-01-27T09:38:43;99114.31;;;6.93;100.00
48424;BME280;34232;42.502;26.014;2023-01-27T09:49:18;99102.03;;;6.73;100.00
48424;BME280;34232;42.502;26.014;2023-01-27T10:00:40;99082.41;;;6.47;100.00
48424;BME280;34232;42.502;26.014;2023-01-27T10:17:04;99052.06;;;6.23;100.00
48424;BME280;34232;42.502;26.014;2023-01-27T10:19:45;99060.34;;;6.40;100.00
48424;BME280;34232;42.502;26.014;2023-01-27T10:22:16;99051.59;;;6.29;100.00
48424;BME280;34232;42.502;26.014;2023-01-27T10:27:22;99043.91;;;6.49;100.00
48424;BME280;34232;42.502;26.014;2023-01-27T10:30:10;99032.00;;;6.56;100.00
48424;BME280;34232;42.502;26.014;2023-01-27T10:46:56;99014.25;;;7.01;100.00
48424;BME280;34232;42.502;26.014;2023-01-27T10:49:31;99011.69;;;7.11;100.00
48424;BME280;34232;42.502;26.014;2023-01-27T10:52:09;98987.59;;;6.86;100.00
48424;BME280;34232;42.502;26.014;2023-01-27T10:54:50;99011.94;;;7.08;100.00
48424;BME280;34232;42.502;26.014;2023-01-27T11:03:00;99009.34;;;7.38;100.00
48424;BME280;34232;42.502;26.014;2023-01-27T11:05:34;99007.16;;;7.53;100.00
48424;BME280;34232;42.502;26.014;2023-01-27T11:08:04;98997.41;;;7.64;100.00
48424;BME280;34232;42.502;26.014;2023-01-27T11:10:54;98998.97;;;7.77;100.00
48424;BME280;34232;42.502;26.014;2023-01-27T11:13:38;99003.66;;;7.83;100.00
48424;BME280;34232;42.502;26.014;2023-01-27T11:16:10;98997.75;;;7.90;100.00
48424;BME280;34232;42.502;26.014;2023-01-27T11:18:40;98995.00;;;7.92;100.00
48424;BME280;34232;42.502;26.014;2023-01-27T11:21:16;98999.16;;;8.04;100.00
48424;BME280;34232;42.502;26.014;2023-01-27T11:23:46;98994.59;;;7.96;100.00
48424;BME280;34232;42.502;26.014;2023-01-27T11:26:36;98990.19;;;8.06;100.00
48424;BME280;34232;42.502;26.014;2023-01-27T11:29:26;98993.50;;;8.18;100.00
48424;BME280;34232;42.502;26.014;2023-01-27T11:32:14;98995.88;;;8.21;100.00
48424;BME280;34232;42.502;26.014;2023-01-27T11:35:16;98985.81;;;8.26;100.00
48424;BME280;34232;42.502;26.014;2023-01-27T11:37:43;98992.00;;;8.25;100.00
48424;BME280;34232;42.502;26.014;2023-01-27T11:40:33;98992.59;;;8.38;100.00
48424;BME280;34232;42.502;26.014;2023-01-27T11:43:00;98984.97;;;8.45;100.00
48424;BME280;34232;42.502;26.014;2023-01-27T11:45:30;98987.88;;;8.52;100.00
48424;BME280;34232;42.502;26.014;2023-01-27T11:47:58;98984.97;;;8.55;100.00
48424;BME280;34232;42.502;26.014;2023-01-27T11:50:27;98983.88;;;8.48;100.00
48424;BME280;34232;42.502;26.014;2023-01-27T11:53:25;98985.97;;;8.44;100.00
48424;BME280;34232;42.502;26.014;2023-01-27T11:55:53;98974.22;;;8.38;100.00
48424;BME280;34232;42.502;26.014;2023-01-27T11:58:28;98984.59;;;8.40;100.00
48424;BME280;34232;42.502;26.014;2023-01-27T12:00:58;98981.13;;;8.39;100.00
48424;BME280;34232;42.502;26.014;2023-01-27T12:06:45;98983.34;;;8.44;100.00
48424;BME280;34232;42.502;26.014;2023-01-27T12:09:33;98990.25;;;8.35;100.00
48424;BME280;34232;42.502;26.014;2023-01-27T12:14:35;98981.78;;;8.22;100.00
48424;BME280;34232;42.502;26.014;2023-01-27T12:17:01;98987.72;;;8.24;100.00
48424;BME280;34232;42.502;26.014;2023-01-27T12:19:34;98986.63;;;8.17;100.00
48424;BME280;34232;42.502;26.014;2023-01-27T12:22:06;98986.88;;;8.14;99.64
48424;BME280;34232;42.502;26.014;2023-01-27T12:24:35;98996.28;;;8.17;99.17
48424;BME280;34232;42.502;26.014;2023-01-27T12:27:04;98995.16;;;8.19;99.19
48424;BME280;34232;42.502;26.014;2023-01-27T12:29:43;98980.81;;;8.14;98.51
48424;BME280;34232;42.502;26.014;2023-01-27T12:32:17;98993.66;;;8.17;98.27
48424;BME280;34232;42.502;26.014;2023-01-27T12:34:48;98997.78;;;8.19;97.78
48424;BME280;34232;42.502;26.014;2023-01-27T12:37:21;98994.03;;;8.12;96.83
48424;BME280;34232;42.502;26.014;2023-01-27T12:39:50;98997.94;;;8.08;95.90
48424;BME280;34232;42.502;26.014;2023-01-27T12:45:30;98991.56;;;8.01;94.72
48424;BME280;34232;42.502;26.014;2023-01-27T12:50:35;99012.53;;;7.91;93.42
48424;BME280;34232;42.502;26.014;2023-01-27T12:58:42;99006.09;;;7.55;93.12
48424;BME280;34232;42.502;26.014;2023-01-27T13:01:30;99008.25;;;7.41;93.25
48424;BME280;34232;42.502;26.014;2023-01-27T13:04:03;99004.19;;;7.27;92.79
48424;BME280;34232;42.502;26.014;2023-01-27T13:06:50;99006.25;;;7.02;93.92
48424;BME280;34232;42.502;26.014;2023-01-27T13:14:55;98996.97;;;6.89;94.33
48424;BME280;34232;42.502;26.014;2023-01-27T13:20:04;98983.94;;;6.98;95.31
48424;BME280;34232;42.502;26.014;2023-01-27T13:22:38;99001.47;;;7.08;93.51
48424;BME280;34232;42.502;26.014;2023-01-27T13:25:04;99003.72;;;7.12;92.50
48424;BME280;34232;42.502;26.014;2023-01-27T13:27:38;98990.88;;;7.09;93.31
48424;BME280;34232;42.502;26.014;2023-01-27T13:30:28;98990.75;;;7.11;92.03
48424;BME280;34232;42.502;26.014;2023-01-27T13:35:54;99000.66;;;7.07;91.07
48424;BME280;34232;42.502;26.014;2023-01-27T13:41:17;99000.50;;;6.78;90.66
48424;BME280;34232;42.502;26.014;2023-01-27T13:43:52;99005.97;;;6.75;90.43
48424;BME280;34232;42.502;26.014;2023-01-27T13:46:29;99017.19;;;6.66;90.76
48424;BME280;34232;42.502;26.014;2023-01-27T13:49:03;99017.78;;;6.70;90.77
48424;BME280;34232;42.502;26.014;2023-01-27T13:51:35;99008.97;;;6.71;90.08
48424;BME280;34232;42.502;26.014;2023-01-27T13:54:02;99012.25;;;6.63;88.96
48424;BME280;34232;42.502;26.014;2023-01-27T14:10:40;99005.84;;;6.56;92.15
48424;BME280;34232;42.502;26.014;2023-01-27T14:19:39;99020.59;;;6.78;90.75
48424;BME280;34232;42.502;26.014;2023-01-27T14:22:34;99017.06;;;6.88;90.94
48424;BME280;34232;42.502;26.014;2023-01-27T14:25:21;99008.00;;;6.92;89.25
48424;BME280;34232;42.502;26.014;2023-01-27T14:28:00;99013.59;;;7.09;87.38
48424;BME280;34232;42.502;26.014;2023-01-27T14:30:36;99017.50;;;7.14;87.46
48424;BME280;34232;42.502;26.014;2023-01-27T14:33:10;99018.50;;;7.23;88.70
48424;BME280;34232;42.502;26.014;2023-01-27T14:35:50;99014.78;;;7.25;87.53
48424;BME280;34232;42.502;26.014;2023-01-27T14:43:51;99019.44;;;7.22;88.50
48424;BME280;34232;42.502;26.014;2023-01-27T14:46:40;99032.09;;;7.17;86.45
48424;BME280;34232;42.502;26.014;2023-01-27T14:51:52;99040.72;;;7.08;84.98
48424;BME280;34232;42.502;26.014;2023-01-27T14:57:31;99031.47;;;7.03;86.03
48424;BME280;34232;42.502;26.014;2023-01-27T15:03:32;99014.28;;;6.80;85.64
48424;BME280;34232;42.502;26.014;2023-01-27T15:20:12;99032.22;;;6.53;85.03
48424;BME280;34232;42.502;26.014;2023-01-27T15:25:35;99044.81;;;6.59;84.15
48424;BME280;34232;42.502;26.014;2023-01-27T15:28:03;99042.81;;;6.51;83.09
48424;BME280;34232;42.502;26.014;2023-01-27T15:30:31;99039.38;;;6.51;83.51
48424;BME280;34232;42.502;26.014;2023-01-27T15:32:59;99051.75;;;6.49;83.21
48424;BME280;34232;42.502;26.014;2023-01-27T15:37:58;99058.63;;;6.50;83.42